Bulk Norway — 9HA2862 — position and weather

sailwx.info

Track history (hours):
 
Tides and Currents Weather Stations Pressure Air Temp Water Temp Dewpoint Dewpoint Depression Visibility Wind Speed Wind Dir Waves Ship Positions

Bulk Norway

Last reported at 2017-Jul-28 02:38 UTC. Time now 2017-Sep-19 17:05 UTC.
Position N 31°41' E 121°10'.
Warning: this ship's position is 53 days out of date.

Length 292 m; draft 12.1 m.

Type: Cargo ship. MMSI: 256456000.

Date/timePositionNaut miles runAvg speedWind from/ knotsBaromVisibWave heightAir tempDewpointWater temp
2017-Jul-28 02:38N 31°41' E 121°10'0 0.0
2017-Jul-28 02:29N 31°41' E 121°10'0 0.0
2017-Jul-28 01:59N 31°41' E 121°10'0 0.1
2017-Jul-28 01:29N 31°41' E 121°10'0 0.1
2017-Jul-28 00:59N 31°41' E 121°10'0 0.0
2017-Jul-28 00:26N 31°41' E 121°10'0 0.1
2017-Jul-27 23:59N 31°41' E 121°10'0 0.1
2017-Jul-27 23:29N 31°41' E 121°10'0 0.0
2017-Jul-27 22:59N 31°41' E 121°10'0 0.1
2017-Jul-27 22:29N 31°41' E 121°10'0 0.0
2017-Jul-27 21:56N 31°41' E 121°10'0 0.1
2017-Jul-27 21:29N 31°41' E 121°10'0 0.0
2017-Jul-27 20:59N 31°41' E 121°10'0 0.0
2017-Jul-27 20:29N 31°41' E 121°10'0 0.1
2017-Jul-27 19:56N 31°41' E 121°10'0 0.1
2017-Jul-27 19:29N 31°41' E 121°10'0 0.1
2017-Jul-27 18:59N 31°41' E 121°10'0 0.1
2017-Jul-27 18:29N 31°41' E 121°10'0 0.0
2017-Jul-27 17:56N 31°41' E 121°10'0 0.1
2017-Jul-27 17:29N 31°41' E 121°10'0 0.0
2017-Jul-27 16:59N 31°41' E 121°10'0 0.0
2017-Jul-27 16:26N 31°41' E 121°10'0 0.0
2017-Jul-27 15:59N 31°41' E 121°10'0 0.1
2017-Jul-27 15:26N 31°41' E 121°10'0 0.0
2017-Jul-27 14:59N 31°41' E 121°10'0 0.0
2017-Jul-27 13:59N 31°41' E 121°10'0 0.0
2017-Jul-27 13:29N 31°41' E 121°10'0 0.1
2017-Jul-27 12:56N 31°41' E 121°10'0 0.0
2017-Jul-27 12:29N 31°41' E 121°10'0 0.1
2017-Jul-27 11:59N 31°41' E 121°10'0 0.1
2017-Jul-27 11:29N 31°41' E 121°10'0 0.1
2017-Jul-27 10:56N 31°41' E 121°10'0 0.0
2017-Jul-27 10:17N 31°41' E 121°10'0 0.0
2017-Jul-27 09:59N 31°41' E 121°10'0 0.5
2017-Jul-27 09:30N 31°41' E 121°10'4 7.2
2017-Jul-27 09:00N 31°39' E 121°14'611.8
2017-Jul-27 08:30N 31°35' E 121°18'611.2
2017-Jul-27 08:00N 31°31' E 121°23'510.8
2017-Jul-27 07:30N 31°27' E 121°28'4 9.1
2017-Jul-27 07:00N 31°25' E 121°32'612.2
2017-Jul-27 06:30N 31°22' E 121°38'611.9
2017-Jul-27 06:00N 31°19' E 121°45'611.2
2017-Jul-27 05:30N 31°17' E 121°50'5 9.9
2017-Jul-27 05:00N 31°15' E 121°56'510.5
2017-Jul-27 04:30N 31°14' E 122°02'510.5
2017-Jul-27 04:00N 31°13' E 122°08'5 9.2
2017-Jul-27 03:30N 31°10' E 122°12'4 8.7
2017-Jul-27 03:00N 31°07' E 122°16'4 8.6
2017-Jul-27 02:30N 31°06' E 122°21'5 9.6
2017-Jul-27 02:00N 31°06' E 122°27'510.1
2017-Jul-27 01:30N 31°06' E 122°33'5 9.0
2017-Jul-27 01:00N 31°05' E 122°38'1 2.1
2017-Jul-27 00:29N 31°04' E 122°38'0 0.1
2017-Jul-26 23:56N 31°04' E 122°38'0 0.0
2017-Jul-26 23:17N 31°04' E 122°38'0 0.1
2017-Jul-26 22:59N 31°04' E 122°38'0 0.0
2017-Jul-26 22:29N 31°04' E 122°38'0 0.0
2017-Jul-26 21:59N 31°04' E 122°38'0 0.1
2017-Jul-26 21:29N 31°04' E 122°38'0 0.1
2017-Jul-26 20:50N 31°04' E 122°38'0 0.1
2017-Jul-26 20:29N 31°04' E 122°38'0 0.1
2017-Jul-26 19:59N 31°04' E 122°38'0 0.1
2017-Jul-26 19:29N 31°04' E 122°38'0 0.1
2017-Jul-26 18:59N 31°04' E 122°38'0 0.1
2017-Jul-26 18:29N 31°04' E 122°38'0 0.1
2017-Jul-26 17:53N 31°04' E 122°38'0 0.1
2017-Jul-26 17:29N 31°04' E 122°38'0 0.1
2017-Jul-26 17:00N 31°04' E 122°38'2 4.9
2017-Jul-26 16:30N 31°06' E 122°40'5 9.6
2017-Jul-26 16:00N 31°06' E 122°45'611.6
2017-Jul-26 15:30N 31°03' E 122°51'712.0
2017-Jul-26 14:53N 30°57' E 122°57'1010.9
2017-Jul-26 13:56N 30°48' E 123°01'510.9
2017-Jul-26 13:31N 30°43' E 123°02'911.2
2017-Jul-26 12:43N 30°34' E 123°04'410.8
2017-Jul-26 12:21N 30°30' E 123°05'510.4
2017-Jul-26 11:50N 30°25' E 123°06'12 9.7
2017-Jul-26 10:35N 30°13' E 123°03'5 9.6
2017-Jul-26 10:06N 30°09' E 123°01'1 9.6
2017-Jul-26 10:00N 30°08' E 123°00'5 9.7
2017-Jul-26 09:30N 30°04' E 122°58'610.4
2017-Jul-26 08:58N 29°59' E 122°54'610.6
2017-Jul-26 08:26N 29°55' E 122°50'510.8
2017-Jul-26 07:59N 29°51' E 122°47'511.1
2017-Jul-26 07:30N 29°47' E 122°42'611.2
2017-Jul-26 07:00N 29°44' E 122°38'510.8
2017-Jul-26 06:30N 29°40' E 122°33'612.3
2017-Jul-26 06:00N 29°42' E 122°26'611.3
2017-Jul-26 05:30N 29°44' E 122°20'5 9.9
2017-Jul-26 05:00N 29°47' E 122°15'611.5
2017-Jul-26 04:30N 29°52' E 122°11'4 8.2
2017-Jul-26 04:00N 29°55' E 122°09'3 6.7
2017-Jul-26 03:30N 29°55' E 122°05'1 2.1
2017-Jul-26 02:52N 29°54' E 122°05'0 0.0
2017-Jul-26 02:28N 29°54' E 122°05'0 0.0
2017-Jul-26 01:58N 29°54' E 122°05'0 0.0
2017-Jul-26 01:28N 29°54' E 122°05'0 0.0
2017-Jul-26 00:58N 29°54' E 122°05'0 0.0
2017-Jul-26 00:28N 29°54' E 122°05'0 0.1
2017-Jul-25 23:58N 29°54' E 122°05'0 0.1
2017-Jul-25 23:28N 29°54' E 122°05'0 0.0
2017-Jul-25 22:58N 29°54' E 122°05'0 0.0
2017-Jul-25 22:22N 29°54' E 122°05'0 0.0
2017-Jul-25 21:58N 29°54' E 122°05'0 0.0
2017-Jul-25 21:25N 29°54' E 122°05'0 0.0
2017-Jul-25 20:52N 29°54' E 122°05'0 0.1
2017-Jul-25 20:28N 29°54' E 122°05'0 0.0
2017-Jul-25 19:52N 29°54' E 122°05'0 0.0
2017-Jul-25 19:28N 29°54' E 122°05'0 0.1
2017-Jul-25 18:58N 29°54' E 122°05'0 0.0
2017-Jul-25 18:25N 29°54' E 122°05'0 0.0
2017-Jul-25 17:52N 29°54' E 122°05'0 0.0
2017-Jul-25 17:22N 29°54' E 122°05'0 0.0
2017-Jul-25 16:55N 29°54' E 122°05'0 0.0
2017-Jul-25 16:28N 29°54' E 122°05'0 0.0
2017-Jul-25 15:58N 29°54' E 122°05'0 0.0
2017-Jul-25 15:28N 29°54' E 122°05'0 0.0
2017-Jul-25 14:58N 29°54' E 122°05'0 0.0
2017-Jul-25 13:58N 29°54' E 122°05'0 0.0
2017-Jul-25 13:28N 29°54' E 122°05'0 0.0
2017-Jul-25 12:52N 29°54' E 122°05'0 0.0
2017-Jul-25 12:28N 29°54' E 122°05'0 0.0
2017-Jul-25 11:58N 29°54' E 122°05'0 0.0
2017-Jul-25 11:28N 29°54' E 122°05'0 0.0
2017-Jul-25 10:58N 29°54' E 122°05'0 0.0
2017-Jul-25 10:29N 29°54' E 122°05'0 0.0
2017-Jul-25 09:55N 29°54' E 122°05'0 0.0
2017-Jul-25 09:25N 29°54' E 122°05'0 0.0
2017-Jul-25 08:55N 29°54' E 122°05'0 0.0
2017-Jul-25 08:25N 29°54' E 122°05'0 0.0
2017-Jul-25 07:46N 29°54' E 122°05'0 0.0
2017-Jul-25 07:19N 29°54' E 122°05'0 0.0
2017-Jul-25 06:58N 29°54' E 122°05'0 0.0
2017-Jul-25 06:25N 29°54' E 122°05'0 0.0
2017-Jul-25 05:58N 29°54' E 122°05'0 0.0
2017-Jul-25 05:28N 29°54' E 122°05'0 0.0
2017-Jul-25 04:58N 29°54' E 122°05'0 0.0
2017-Jul-25 04:28N 29°54' E 122°05'0 0.0
2017-Jul-25 03:55N 29°54' E 122°05'0 0.0
2017-Jul-25 03:28N 29°54' E 122°05'0 0.5
2017-Jul-25 03:00N 29°54' E 122°05'2 5.0
2017-Jul-25 02:30N 29°55' E 122°07'4 8.7
2017-Jul-25 02:00N 29°53' E 122°11'612.1
2017-Jul-25 01:30N 29°48' E 122°15'510.4
2017-Jul-25 01:01N 29°45' E 122°20'4 7.7
2017-Jul-25 00:30N 29°43' E 122°24'4 8.4
2017-Jul-25 00:00N 29°42' E 122°29'3 6.4
2017-Jul-24 23:31N 29°40' E 122°31'1 2.3
2017-Jul-24 22:58N 29°39' E 122°31'0 0.3
2017-Jul-24 22:28N 29°38' E 122°31'0 0.1
2017-Jul-24 22:01N 29°38' E 122°31'0 0.1
2017-Jul-24 21:28N 29°38' E 122°31'0 0.1
2017-Jul-24 20:55N 29°38' E 122°31'0 0.0
2017-Jul-24 20:31N 29°38' E 122°31'0 0.1
2017-Jul-24 19:55N 29°38' E 122°31'0 0.1
2017-Jul-24 19:25N 29°38' E 122°31'0 0.0
2017-Jul-24 19:01N 29°38' E 122°31'0 0.1
2017-Jul-24 18:28N 29°38' E 122°31'0 0.1
2017-Jul-24 17:58N 29°39' E 122°31'0 0.1
2017-Jul-24 17:31N 29°39' E 122°31'0 0.2
2017-Jul-24 16:58N 29°39' E 122°31'0 0.1
2017-Jul-24 16:27N 29°39' E 122°31'0 0.1
2017-Jul-24 12:58N 29°39' E 122°31'0 0.1
2017-Jul-24 12:27N 29°39' E 122°31'0 0.1
2017-Jul-24 11:55N 29°39' E 122°31'0 0.0
2017-Jul-24 11:27N 29°39' E 122°31'0 0.2
2017-Jul-24 10:57N 29°38' E 122°31'0 0.1
2017-Jul-24 10:27N 29°38' E 122°31'0 0.1
2017-Jul-24 10:00N 29°38' E 122°31'0 0.0
2017-Jul-24 09:28N 29°38' E 122°31'0 0.1
2017-Jul-24 08:58N 29°38' E 122°31'0 0.0
2017-Jul-24 08:30N 29°38' E 122°31'0 0.2
2017-Jul-24 07:49N 29°38' E 122°31'0 0.0
2017-Jul-24 07:28N 29°38' E 122°31'0 0.1
2017-Jul-24 06:57N 29°38' E 122°31'0 0.0
2017-Jul-24 06:28N 29°38' E 122°31'0 0.2
2017-Jul-24 06:01N 29°39' E 122°31'0 0.1
2017-Jul-24 05:25N 29°39' E 122°31'0 0.1
2017-Jul-24 04:52N 29°39' E 122°31'0 0.1
2017-Jul-24 04:28N 29°39' E 122°31'0 0.1
2017-Jul-24 03:55N 29°39' E 122°31'0 0.1
2017-Jul-24 02:21N 29°39' E 122°31'0 0.2
2017-Jul-24 01:43N 29°39' E 122°31'0 0.2
2017-Jul-24 01:21N 29°39' E 122°31'0 0.2
2017-Jul-24 00:57N 29°39' E 122°31'0 0.1
2017-Jul-23 23:54N 29°39' E 122°31'0 0.2
2017-Jul-23 23:28N 29°39' E 122°31'0 0.2
2017-Jul-23 23:01N 29°38' E 122°31'0 0.1
2017-Jul-23 17:43N 29°39' E 122°31'0 0.1
2017-Jul-23 17:25N 29°39' E 122°31'0 0.1
2017-Jul-23 16:43N 29°39' E 122°31'0 0.1
2017-Jul-23 16:28N 29°39' E 122°31'0 0.2
2017-Jul-23 15:43N 29°39' E 122°31'0 0.1
2017-Jul-23 14:45N 29°39' E 122°31'0 0.1
2017-Jul-23 12:40N 29°39' E 122°31'0 0.1
2017-Jul-23 12:09N 29°39' E 122°31'0 0.3
2017-Jul-23 11:57N 29°39' E 122°31'0 0.1
2017-Jul-23 11:30N 29°39' E 122°31'0 0.2
2017-Jul-23 10:58N 29°38' E 122°31'0 0.1
2017-Jul-23 10:09N 29°38' E 122°31'0 0.0
2017-Jul-23 09:57N 29°38' E 122°31'0 0.1
2017-Jul-23 09:30N 29°38' E 122°31'0 0.1
2017-Jul-23 09:00N 29°38' E 122°31'0 0.0
2017-Jul-23 08:30N 29°38' E 122°31'0 0.1
2017-Jul-23 08:01N 29°38' E 122°31'0 0.0
2017-Jul-23 07:30N 29°38' E 122°31'0 0.2
2017-Jul-23 07:00N 29°38' E 122°31'0 0.1
2017-Jul-23 06:30N 29°38' E 122°31'0 0.2
2017-Jul-23 06:00N 29°38' E 122°31'1 2.0
2017-Jul-23 05:30N 29°38' E 122°32'3 6.1
2017-Jul-23 05:00N 29°35' E 122°34'4 8.7
2017-Jul-23 04:30N 29°31' E 122°36'510.2
2017-Jul-23 04:00N 29°26' E 122°36'510.2
2017-Jul-23 03:30N 29°21' E 122°36'610.8
2017-Jul-23 02:59N 29°16' E 122°37'611.0
2017-Jul-23 02:29N 29°10' E 122°36'  
Track history (hours):
 
Tides and Currents Weather Stations Pressure Air Temp Water Temp Dewpoint Dewpoint Depression Visibility Wind Speed Wind Dir Waves Ship Positions

Bulk Norway

Last reported at 2017-Jul-28 02:38 UTC. Time now 2017-Sep-19 17:05 UTC.
Position N 31°41' E 121°10'.
Warning: this ship's position is 53 days out of date.

Length 292 m; draft 12.1 m.

Type: Cargo ship. MMSI: 256456000.

Date/timePositionNaut miles runAvg speedWind from/ knotsBaromVisibWave heightAir tempDewpointWater temp
2017-Jul-28 02:38N 31°41' E 121°10'0 0.0
2017-Jul-28 02:29N 31°41' E 121°10'0 0.0
2017-Jul-28 01:59N 31°41' E 121°10'0 0.1
2017-Jul-28 01:29N 31°41' E 121°10'0 0.1
2017-Jul-28 00:59N 31°41' E 121°10'0 0.0
2017-Jul-28 00:26N 31°41' E 121°10'0 0.1
2017-Jul-27 23:59N 31°41' E 121°10'0 0.1
2017-Jul-27 23:29N 31°41' E 121°10'0 0.0
2017-Jul-27 22:59N 31°41' E 121°10'0 0.1
2017-Jul-27 22:29N 31°41' E 121°10'0 0.0
2017-Jul-27 21:56N 31°41' E 121°10'0 0.1
2017-Jul-27 21:29N 31°41' E 121°10'0 0.0
2017-Jul-27 20:59N 31°41' E 121°10'0 0.0
2017-Jul-27 20:29N 31°41' E 121°10'0 0.1
2017-Jul-27 19:56N 31°41' E 121°10'0 0.1
2017-Jul-27 19:29N 31°41' E 121°10'0 0.1
2017-Jul-27 18:59N 31°41' E 121°10'0 0.1
2017-Jul-27 18:29N 31°41' E 121°10'0 0.0
2017-Jul-27 17:56N 31°41' E 121°10'0 0.1
2017-Jul-27 17:29N 31°41' E 121°10'0 0.0
2017-Jul-27 16:59N 31°41' E 121°10'0 0.0
2017-Jul-27 16:26N 31°41' E 121°10'0 0.0
2017-Jul-27 15:59N 31°41' E 121°10'0 0.1
2017-Jul-27 15:26N 31°41' E 121°10'0 0.0
2017-Jul-27 14:59N 31°41' E 121°10'0 0.0
2017-Jul-27 13:59N 31°41' E 121°10'0 0.0
2017-Jul-27 13:29N 31°41' E 121°10'0 0.1
2017-Jul-27 12:56N 31°41' E 121°10'0 0.0
2017-Jul-27 12:29N 31°41' E 121°10'0 0.1
2017-Jul-27 11:59N 31°41' E 121°10'0 0.1
2017-Jul-27 11:29N 31°41' E 121°10'0 0.1
2017-Jul-27 10:56N 31°41' E 121°10'0 0.0
2017-Jul-27 10:17N 31°41' E 121°10'0 0.0
2017-Jul-27 09:59N 31°41' E 121°10'0 0.5
2017-Jul-27 09:30N 31°41' E 121°10'4 7.2
2017-Jul-27 09:00N 31°39' E 121°14'611.8
2017-Jul-27 08:30N 31°35' E 121°18'611.2
2017-Jul-27 08:00N 31°31' E 121°23'510.8
2017-Jul-27 07:30N 31°27' E 121°28'4 9.1
2017-Jul-27 07:00N 31°25' E 121°32'612.2
2017-Jul-27 06:30N 31°22' E 121°38'611.9
2017-Jul-27 06:00N 31°19' E 121°45'611.2
2017-Jul-27 05:30N 31°17' E 121°50'5 9.9
2017-Jul-27 05:00N 31°15' E 121°56'510.5
2017-Jul-27 04:30N 31°14' E 122°02'510.5
2017-Jul-27 04:00N 31°13' E 122°08'5 9.2
2017-Jul-27 03:30N 31°10' E 122°12'4 8.7
2017-Jul-27 03:00N 31°07' E 122°16'4 8.6
2017-Jul-27 02:30N 31°06' E 122°21'5 9.6
2017-Jul-27 02:00N 31°06' E 122°27'510.1
2017-Jul-27 01:30N 31°06' E 122°33'5 9.0
2017-Jul-27 01:00N 31°05' E 122°38'1 2.1
2017-Jul-27 00:29N 31°04' E 122°38'0 0.1
2017-Jul-26 23:56N 31°04' E 122°38'0 0.0
2017-Jul-26 23:17N 31°04' E 122°38'0 0.1
2017-Jul-26 22:59N 31°04' E 122°38'0 0.0
2017-Jul-26 22:29N 31°04' E 122°38'0 0.0
2017-Jul-26 21:59N 31°04' E 122°38'0 0.1
2017-Jul-26 21:29N 31°04' E 122°38'0 0.1
2017-Jul-26 20:50N 31°04' E 122°38'0 0.1
2017-Jul-26 20:29N 31°04' E 122°38'0 0.1
2017-Jul-26 19:59N 31°04' E 122°38'0 0.1
2017-Jul-26 19:29N 31°04' E 122°38'0 0.1
2017-Jul-26 18:59N 31°04' E 122°38'0 0.1
2017-Jul-26 18:29N 31°04' E 122°38'0 0.1
2017-Jul-26 17:53N 31°04' E 122°38'0 0.1
2017-Jul-26 17:29N 31°04' E 122°38'0 0.1
2017-Jul-26 17:00N 31°04' E 122°38'2 4.9
2017-Jul-26 16:30N 31°06' E 122°40'5 9.6
2017-Jul-26 16:00N 31°06' E 122°45'611.6
2017-Jul-26 15:30N 31°03' E 122°51'712.0
2017-Jul-26 14:53N 30°57' E 122°57'1010.9
2017-Jul-26 13:56N 30°48' E 123°01'510.9
2017-Jul-26 13:31N 30°43' E 123°02'911.2
2017-Jul-26 12:43N 30°34' E 123°04'410.8
2017-Jul-26 12:21N 30°30' E 123°05'510.4
2017-Jul-26 11:50N 30°25' E 123°06'12 9.7
2017-Jul-26 10:35N 30°13' E 123°03'5 9.6
2017-Jul-26 10:06N 30°09' E 123°01'1 9.6
2017-Jul-26 10:00N 30°08' E 123°00'5 9.7
2017-Jul-26 09:30N 30°04' E 122°58'610.4
2017-Jul-26 08:58N 29°59' E 122°54'610.6
2017-Jul-26 08:26N 29°55' E 122°50'510.8
2017-Jul-26 07:59N 29°51' E 122°47'511.1
2017-Jul-26 07:30N 29°47' E 122°42'611.2
2017-Jul-26 07:00N 29°44' E 122°38'510.8
2017-Jul-26 06:30N 29°40' E 122°33'612.3
2017-Jul-26 06:00N 29°42' E 122°26'611.3
2017-Jul-26 05:30N 29°44' E 122°20'5 9.9
2017-Jul-26 05:00N 29°47' E 122°15'611.5
2017-Jul-26 04:30N 29°52' E 122°11'4 8.2
2017-Jul-26 04:00N 29°55' E 122°09'3 6.7
2017-Jul-26 03:30N 29°55' E 122°05'1 2.1
2017-Jul-26 02:52N 29°54' E 122°05'0 0.0
2017-Jul-26 02:28N 29°54' E 122°05'0 0.0
2017-Jul-26 01:58N 29°54' E 122°05'0 0.0
2017-Jul-26 01:28N 29°54' E 122°05'0 0.0
2017-Jul-26 00:58N 29°54' E 122°05'0 0.0
2017-Jul-26 00:28N 29°54' E 122°05'0 0.1
2017-Jul-25 23:58N 29°54' E 122°05'0 0.1
2017-Jul-25 23:28N 29°54' E 122°05'0 0.0
2017-Jul-25 22:58N 29°54' E 122°05'0 0.0
2017-Jul-25 22:22N 29°54' E 122°05'0 0.0
2017-Jul-25 21:58N 29°54' E 122°05'0 0.0
2017-Jul-25 21:25N 29°54' E 122°05'0 0.0
2017-Jul-25 20:52N 29°54' E 122°05'0 0.1
2017-Jul-25 20:28N 29°54' E 122°05'0 0.0
2017-Jul-25 19:52N 29°54' E 122°05'0 0.0
2017-Jul-25 19:28N 29°54' E 122°05'0 0.1
2017-Jul-25 18:58N 29°54' E 122°05'0 0.0
2017-Jul-25 18:25N 29°54' E 122°05'0 0.0
2017-Jul-25 17:52N 29°54' E 122°05'0 0.0
2017-Jul-25 17:22N 29°54' E 122°05'0 0.0
2017-Jul-25 16:55N 29°54' E 122°05'0 0.0
2017-Jul-25 16:28N 29°54' E 122°05'0 0.0
2017-Jul-25 15:58N 29°54' E 122°05'0 0.0
2017-Jul-25 15:28N 29°54' E 122°05'0 0.0
2017-Jul-25 14:58N 29°54' E 122°05'0 0.0
2017-Jul-25 13:58N 29°54' E 122°05'0 0.0
2017-Jul-25 13:28N 29°54' E 122°05'0 0.0
2017-Jul-25 12:52N 29°54' E 122°05'0 0.0
2017-Jul-25 12:28N 29°54' E 122°05'0 0.0
2017-Jul-25 11:58N 29°54' E 122°05'0 0.0
2017-Jul-25 11:28N 29°54' E 122°05'0 0.0
2017-Jul-25 10:58N 29°54' E 122°05'0 0.0
2017-Jul-25 10:29N 29°54' E 122°05'0 0.0
2017-Jul-25 09:55N 29°54' E 122°05'0 0.0
2017-Jul-25 09:25N 29°54' E 122°05'0 0.0
2017-Jul-25 08:55N 29°54' E 122°05'0 0.0
2017-Jul-25 08:25N 29°54' E 122°05'0 0.0
2017-Jul-25 07:46N 29°54' E 122°05'0 0.0
2017-Jul-25 07:19N 29°54' E 122°05'0 0.0
2017-Jul-25 06:58N 29°54' E 122°05'0 0.0
2017-Jul-25 06:25N 29°54' E 122°05'0 0.0
2017-Jul-25 05:58N 29°54' E 122°05'0 0.0
2017-Jul-25 05:28N 29°54' E 122°05'0 0.0
2017-Jul-25 04:58N 29°54' E 122°05'0 0.0
2017-Jul-25 04:28N 29°54' E 122°05'0 0.0
2017-Jul-25 03:55N 29°54' E 122°05'0 0.0
2017-Jul-25 03:28N 29°54' E 122°05'0 0.5
2017-Jul-25 03:00N 29°54' E 122°05'2 5.0
2017-Jul-25 02:30N 29°55' E 122°07'4 8.7
2017-Jul-25 02:00N 29°53' E 122°11'612.1
2017-Jul-25 01:30N 29°48' E 122°15'510.4
2017-Jul-25 01:01N 29°45' E 122°20'4 7.7
2017-Jul-25 00:30N 29°43' E 122°24'4 8.4
2017-Jul-25 00:00N 29°42' E 122°29'3 6.4
2017-Jul-24 23:31N 29°40' E 122°31'1 2.3
2017-Jul-24 22:58N 29°39' E 122°31'0 0.3
2017-Jul-24 22:28N 29°38' E 122°31'0 0.1
2017-Jul-24 22:01N 29°38' E 122°31'0 0.1
2017-Jul-24 21:28N 29°38' E 122°31'0 0.1
2017-Jul-24 20:55N 29°38' E 122°31'0 0.0
2017-Jul-24 20:31N 29°38' E 122°31'0 0.1
2017-Jul-24 19:55N 29°38' E 122°31'0 0.1
2017-Jul-24 19:25N 29°38' E 122°31'0 0.0
2017-Jul-24 19:01N 29°38' E 122°31'0 0.1
2017-Jul-24 18:28N 29°38' E 122°31'0 0.1
2017-Jul-24 17:58N 29°39' E 122°31'0 0.1
2017-Jul-24 17:31N 29°39' E 122°31'0 0.2
2017-Jul-24 16:58N 29°39' E 122°31'0 0.1
2017-Jul-24 16:27N 29°39' E 122°31'0 0.1
2017-Jul-24 12:58N 29°39' E 122°31'0 0.1
2017-Jul-24 12:27N 29°39' E 122°31'0 0.1
2017-Jul-24 11:55N 29°39' E 122°31'0 0.0
2017-Jul-24 11:27N 29°39' E 122°31'0 0.2
2017-Jul-24 10:57N 29°38' E 122°31'0 0.1
2017-Jul-24 10:27N 29°38' E 122°31'0 0.1
2017-Jul-24 10:00N 29°38' E 122°31'0 0.0
2017-Jul-24 09:28N 29°38' E 122°31'0 0.1
2017-Jul-24 08:58N 29°38' E 122°31'0 0.0
2017-Jul-24 08:30N 29°38' E 122°31'0 0.2
2017-Jul-24 07:49N 29°38' E 122°31'0 0.0
2017-Jul-24 07:28N 29°38' E 122°31'0 0.1
2017-Jul-24 06:57N 29°38' E 122°31'0 0.0
2017-Jul-24 06:28N 29°38' E 122°31'0 0.2
2017-Jul-24 06:01N 29°39' E 122°31'0 0.1
2017-Jul-24 05:25N 29°39' E 122°31'0 0.1
2017-Jul-24 04:52N 29°39' E 122°31'0 0.1
2017-Jul-24 04:28N 29°39' E 122°31'0 0.1
2017-Jul-24 03:55N 29°39' E 122°31'0 0.1
2017-Jul-24 02:21N 29°39' E 122°31'0 0.2
2017-Jul-24 01:43N 29°39' E 122°31'0 0.2
2017-Jul-24 01:21N 29°39' E 122°31'0 0.2
2017-Jul-24 00:57N 29°39' E 122°31'0 0.1
2017-Jul-23 23:54N 29°39' E 122°31'0 0.2
2017-Jul-23 23:28N 29°39' E 122°31'0 0.2
2017-Jul-23 23:01N 29°38' E 122°31'0 0.1
2017-Jul-23 17:43N 29°39' E 122°31'0 0.1
2017-Jul-23 17:25N 29°39' E 122°31'0 0.1
2017-Jul-23 16:43N 29°39' E 122°31'0 0.1
2017-Jul-23 16:28N 29°39' E 122°31'0 0.2
2017-Jul-23 15:43N 29°39' E 122°31'0 0.1
2017-Jul-23 14:45N 29°39' E 122°31'0 0.1
2017-Jul-23 12:40N 29°39' E 122°31'0 0.1
2017-Jul-23 12:09N 29°39' E 122°31'0 0.3
2017-Jul-23 11:57N 29°39' E 122°31'0 0.1
2017-Jul-23 11:30N 29°39' E 122°31'0 0.2
2017-Jul-23 10:58N 29°38' E 122°31'0 0.1
2017-Jul-23 10:09N 29°38' E 122°31'0 0.0
2017-Jul-23 09:57N 29°38' E 122°31'0 0.1
2017-Jul-23 09:30N 29°38' E 122°31'0 0.1
2017-Jul-23 09:00N 29°38' E 122°31'0 0.0
2017-Jul-23 08:30N 29°38' E 122°31'0 0.1
2017-Jul-23 08:01N 29°38' E 122°31'0 0.0
2017-Jul-23 07:30N 29°38' E 122°31'0 0.2
2017-Jul-23 07:00N 29°38' E 122°31'0 0.1
2017-Jul-23 06:30N 29°38' E 122°31'0 0.2
2017-Jul-23 06:00N 29°38' E 122°31'1 2.0
2017-Jul-23 05:30N 29°38' E 122°32'3 6.1
2017-Jul-23 05:00N 29°35' E 122°34'4 8.7
2017-Jul-23 04:30N 29°31' E 122°36'510.2
2017-Jul-23 04:00N 29°26' E 122°36'510.2
2017-Jul-23 03:30N 29°21' E 122°36'610.8
2017-Jul-23 02:59N 29°16' E 122°37'611.0
2017-Jul-23 02:29N 29°10' E 122°36'  

Dump ship's entire track history